sensor_id;sensor_type;location;lat;lon;timestamp;P1;durP1;ratioP1;P2;durP2;ratioP2
789;SDS011;378;48.844;9.156;2023-01-16T00:01:17;3.03;;;0.90;;
789;SDS011;378;48.844;9.156;2023-01-16T00:03:44;5.53;;;1.08;;
789;SDS011;378;48.844;9.156;2023-01-16T00:06:11;3.87;;;1.10;;
789;SDS011;378;48.844;9.156;2023-01-16T00:08:37;5.47;;;1.07;;
789;SDS011;378;48.844;9.156;2023-01-16T00:11:06;3.40;;;0.93;;
789;SDS011;378;48.844;9.156;2023-01-16T00:13:32;3.60;;;0.90;;
789;SDS011;378;48.844;9.156;2023-01-16T00:15:59;2.90;;;1.30;;
789;SDS011;378;48.844;9.156;2023-01-16T00:18:26;2.30;;;0.70;;
789;SDS011;378;48.844;9.156;2023-01-16T00:20:53;6.13;;;0.97;;
789;SDS011;378;48.844;9.156;2023-01-16T00:23:20;2.92;;;0.98;;
789;SDS011;378;48.844;9.156;2023-01-16T00:25:47;1.92;;;0.90;;
789;SDS011;378;48.844;9.156;2023-01-16T00:28:15;4.85;;;1.17;;
789;SDS011;378;48.844;9.156;2023-01-16T00:30:42;3.60;;;1.08;;
789;SDS011;378;48.844;9.156;2023-01-16T00:33:10;5.13;;;0.80;;
789;SDS011;378;48.844;9.156;2023-01-16T00:35:37;2.05;;;0.90;;
789;SDS011;378;48.844;9.156;2023-01-16T00:38:04;3.92;;;1.10;;
789;SDS011;378;48.844;9.156;2023-01-16T00:40:31;4.30;;;0.85;;
789;SDS011;378;48.844;9.156;2023-01-16T00:42:58;3.65;;;0.90;;
789;SDS011;378;48.844;9.156;2023-01-16T00:45:26;4.73;;;1.20;;
789;SDS011;378;48.844;9.156;2023-01-16T00:47:53;2.17;;;0.90;;
789;SDS011;378;48.844;9.156;2023-01-16T00:50:20;5.10;;;1.10;;
789;SDS011;378;48.844;9.156;2023-01-16T00:52:46;1.92;;;0.80;;
789;SDS011;378;48.844;9.156;2023-01-16T00:55:13;4.30;;;0.90;;
789;SDS011;378;48.844;9.156;2023-01-16T00:57:40;4.20;;;1.20;;
789;SDS011;378;48.844;9.156;2023-01-16T01:00:08;3.10;;;1.00;;
789;SDS011;378;48.844;9.156;2023-01-16T01:02:37;5.10;;;1.00;;
789;SDS011;378;48.844;9.156;2023-01-16T01:05:04;6.20;;;1.20;;
789;SDS011;378;48.844;9.156;2023-01-16T01:07:32;4.07;;;1.05;;
789;SDS011;378;48.844;9.156;2023-01-16T01:09:59;5.70;;;0.90;;
789;SDS011;378;48.844;9.156;2023-01-16T01:12:29;1.27;;;0.80;;
789;SDS011;378;48.844;9.156;2023-01-16T01:14:56;3.53;;;0.80;;
789;SDS011;378;48.844;9.156;2023-01-16T01:17:23;1.60;;;0.80;;
789;SDS011;378;48.844;9.156;2023-01-16T01:19:51;1.70;;;0.70;;
789;SDS011;378;48.844;9.156;2023-01-16T01:22:18;3.33;;;0.87;;
789;SDS011;378;48.844;9.156;2023-01-16T01:24:46;1.80;;;1.07;;
789;SDS011;378;48.844;9.156;2023-01-16T01:27:13;2.87;;;0.87;;
789;SDS011;378;48.844;9.156;2023-01-16T01:29:40;4.70;;;0.90;;
789;SDS011;378;48.844;9.156;2023-01-16T01:32:07;4.22;;;0.90;;
789;SDS011;378;48.844;9.156;2023-01-16T01:34:34;2.50;;;1.00;;
789;SDS011;378;48.844;9.156;2023-01-16T01:37:03;2.50;;;0.93;;
789;SDS011;378;48.844;9.156;2023-01-16T01:39:31;2.08;;;0.90;;
789;SDS011;378;48.844;9.156;2023-01-16T01:41:58;4.13;;;0.80;;
789;SDS011;378;48.844;9.156;2023-01-16T01:44:41;4.78;;;1.00;;
789;SDS011;378;48.844;9.156;2023-01-16T01:47:14;3.23;;;1.10;;
789;SDS011;378;48.844;9.156;2023-01-16T01:49:42;3.38;;;0.80;;
789;SDS011;378;48.844;9.156;2023-01-16T01:52:11;6.77;;;1.00;;
789;SDS011;378;48.844;9.156;2023-01-16T01:54:39;1.77;;;0.70;;
789;SDS011;378;48.844;9.156;2023-01-16T01:57:12;4.10;;;0.83;;
789;SDS011;378;48.844;9.156;2023-01-16T01:59:42;1.93;;;1.00;;
789;SDS011;378;48.844;9.156;2023-01-16T02:02:14;4.85;;;0.98;;
789;SDS011;378;48.844;9.156;2023-01-16T02:04:46;4.47;;;0.90;;
789;SDS011;378;48.844;9.156;2023-01-16T02:07:18;3.17;;;0.90;;
789;SDS011;378;48.844;9.156;2023-01-16T02:09:46;6.28;;;1.00;;
789;SDS011;378;48.844;9.156;2023-01-16T02:12:13;2.70;;;0.70;;
789;SDS011;378;48.844;9.156;2023-01-16T02:14:43;3.67;;;1.10;;
789;SDS011;378;48.844;9.156;2023-01-16T02:17:13;3.60;;;1.10;;
789;SDS011;378;48.844;9.156;2023-01-16T02:20:06;1.95;;;1.08;;
789;SDS011;378;48.844;9.156;2023-01-16T02:28:54;4.23;;;1.33;;
789;SDS011;378;48.844;9.156;2023-01-16T02:31:45;2.50;;;0.87;;
789;SDS011;378;48.844;9.156;2023-01-16T02:34:29;2.63;;;0.70;;
789;SDS011;378;48.844;9.156;2023-01-16T02:37:11;1.77;;;0.93;;
789;SDS011;378;48.844;9.156;2023-01-16T02:39:49;3.13;;;1.10;;
789;SDS011;378;48.844;9.156;2023-01-16T02:42:26;5.13;;;0.80;;
789;SDS011;378;48.844;9.156;2023-01-16T02:45:00;6.05;;;1.10;;
789;SDS011;378;48.844;9.156;2023-01-16T02:47:34;6.40;;;1.20;;
789;SDS011;378;48.844;9.156;2023-01-16T02:50:09;3.33;;;0.90;;
789;SDS011;378;48.844;9.156;2023-01-16T02:52:43;4.07;;;1.23;;
789;SDS011;378;48.844;9.156;2023-01-16T02:55:13;3.37;;;1.27;;
789;SDS011;378;48.844;9.156;2023-01-16T02:57:47;4.55;;;0.98;;
789;SDS011;378;48.844;9.156;2023-01-16T03:00:17;3.50;;;0.80;;
789;SDS011;378;48.844;9.156;2023-01-16T03:02:46;4.60;;;1.30;;
789;SDS011;378;48.844;9.156;2023-01-16T03:05:13;4.50;;;1.10;;
789;SDS011;378;48.844;9.156;2023-01-16T03:14:07;2.40;;;0.90;;
789;SDS011;378;48.844;9.156;2023-01-16T03:16:45;5.18;;;0.98;;
789;SDS011;378;48.844;9.156;2023-01-16T03:19:23;4.57;;;0.90;;
789;SDS011;378;48.844;9.156;2023-01-16T03:22:02;8.60;;;0.87;;
789;SDS011;378;48.844;9.156;2023-01-16T03:24:40;1.10;;;0.90;;
789;SDS011;378;48.844;9.156;2023-01-16T03:27:22;3.40;;;1.00;;
789;SDS011;378;48.844;9.156;2023-01-16T03:29:59;3.53;;;1.10;;
789;SDS011;378;48.844;9.156;2023-01-16T03:32:36;7.93;;;0.90;;
789;SDS011;378;48.844;9.156;2023-01-16T03:35:10;4.00;;;0.70;;
789;SDS011;378;48.844;9.156;2023-01-16T03:37:43;3.45;;;1.00;;
789;SDS011;378;48.844;9.156;2023-01-16T03:40:14;4.13;;;1.17;;
789;SDS011;378;48.844;9.156;2023-01-16T03:42:49;2.33;;;0.80;;
789;SDS011;378;48.844;9.156;2023-01-16T03:45:21;5.57;;;1.13;;
789;SDS011;378;48.844;9.156;2023-01-16T03:47:54;2.38;;;0.98;;
789;SDS011;378;48.844;9.156;2023-01-16T03:50:27;2.83;;;1.10;;
789;SDS011;378;48.844;9.156;2023-01-16T03:52:57;5.97;;;1.00;;
789;SDS011;378;48.844;9.156;2023-01-16T03:55:29;2.10;;;0.67;;
789;SDS011;378;48.844;9.156;2023-01-16T03:58:00;5.93;;;1.02;;
789;SDS011;378;48.844;9.156;2023-01-16T04:00:33;5.37;;;0.93;;
789;SDS011;378;48.844;9.156;2023-01-16T04:03:05;3.50;;;1.00;;
789;SDS011;378;48.844;9.156;2023-01-16T04:05:38;4.17;;;1.00;;
789;SDS011;378;48.844;9.156;2023-01-16T04:08:14;4.67;;;0.93;;
789;SDS011;378;48.844;9.156;2023-01-16T04:10:43;3.73;;;0.83;;
789;SDS011;378;48.844;9.156;2023-01-16T04:13:12;4.30;;;0.93;;
789;SDS011;378;48.844;9.156;2023-01-16T04:15:42;2.10;;;1.00;;
789;SDS011;378;48.844;9.156;2023-01-16T04:18:13;4.15;;;1.00;;
789;SDS011;378;48.844;9.156;2023-01-16T04:20:42;1.53;;;1.00;;
789;SDS011;378;48.844;9.156;2023-01-16T04:23:12;5.53;;;0.90;;
789;SDS011;378;48.844;9.156;2023-01-16T04:25:41;4.90;;;1.07;;
789;SDS011;378;48.844;9.156;2023-01-16T04:28:08;2.63;;;0.90;;
789;SDS011;378;48.844;9.156;2023-01-16T04:30:35;2.80;;;1.07;;
789;SDS011;378;48.844;9.156;2023-01-16T04:33:02;5.80;;;1.23;;
789;SDS011;378;48.844;9.156;2023-01-16T04:35:29;5.70;;;1.37;;
789;SDS011;378;48.844;9.156;2023-01-16T04:37:58;2.87;;;1.30;;
789;SDS011;378;48.844;9.156;2023-01-16T04:40:25;4.33;;;1.10;;
789;SDS011;378;48.844;9.156;2023-01-16T04:42:52;2.63;;;1.10;;
789;SDS011;378;48.844;9.156;2023-01-16T04:45:20;2.20;;;1.07;;
789;SDS011;378;48.844;9.156;2023-01-16T04:47:48;5.87;;;1.20;;
789;SDS011;378;48.844;9.156;2023-01-16T04:50:16;7.07;;;1.30;;
789;SDS011;378;48.844;9.156;2023-01-16T04:52:43;3.00;;;1.00;;
789;SDS011;378;48.844;9.156;2023-01-16T04:55:12;4.70;;;1.10;;
789;SDS011;378;48.844;9.156;2023-01-16T04:57:39;4.63;;;0.93;;
789;SDS011;378;48.844;9.156;2023-01-16T05:00:07;1.50;;;1.00;;
789;SDS011;378;48.844;9.156;2023-01-16T05:02:35;4.60;;;1.10;;
789;SDS011;378;48.844;9.156;2023-01-16T05:05:03;3.50;;;1.23;;
789;SDS011;378;48.844;9.156;2023-01-16T05:07:30;5.43;;;1.20;;
789;SDS011;378;48.844;9.156;2023-01-16T05:09:57;2.87;;;1.20;;
789;SDS011;378;48.844;9.156;2023-01-16T05:12:25;3.37;;;1.00;;
789;SDS011;378;48.844;9.156;2023-01-16T05:14:52;2.40;;;1.20;;
789;SDS011;378;48.844;9.156;2023-01-16T05:17:19;3.27;;;1.50;;
789;SDS011;378;48.844;9.156;2023-01-16T05:19:49;3.20;;;1.70;;
789;SDS011;378;48.844;9.156;2023-01-16T05:22:16;9.13;;;2.20;;
789;SDS011;378;48.844;9.156;2023-01-16T05:24:43;5.13;;;1.77;;
789;SDS011;378;48.844;9.156;2023-01-16T05:27:09;2.90;;;1.67;;
789;SDS011;378;48.844;9.156;2023-01-16T05:29:38;6.60;;;1.40;;
789;SDS011;378;48.844;9.156;2023-01-16T05:32:04;2.47;;;1.10;;
789;SDS011;378;48.844;9.156;2023-01-16T05:34:31;4.17;;;1.13;;
789;SDS011;378;48.844;9.156;2023-01-16T05:36:58;6.23;;;1.83;;
789;SDS011;378;48.844;9.156;2023-01-16T05:39:25;4.10;;;1.37;;
789;SDS011;378;48.844;9.156;2023-01-16T05:41:52;6.43;;;1.20;;
789;SDS011;378;48.844;9.156;2023-01-16T05:44:18;6.50;;;1.55;;
789;SDS011;378;48.844;9.156;2023-01-16T05:46:48;3.47;;;1.73;;
789;SDS011;378;48.844;9.156;2023-01-16T05:49:15;4.37;;;1.20;;
789;SDS011;378;48.844;9.156;2023-01-16T05:51:43;3.77;;;1.40;;
789;SDS011;378;48.844;9.156;2023-01-16T05:54:10;4.93;;;1.40;;
789;SDS011;378;48.844;9.156;2023-01-16T05:56:38;2.87;;;1.43;;
789;SDS011;378;48.844;9.156;2023-01-16T05:59:05;5.07;;;1.40;;
789;SDS011;378;48.844;9.156;2023-01-16T06:01:32;4.70;;;1.33;;
789;SDS011;378;48.844;9.156;2023-01-16T06:04:00;3.67;;;1.20;;
789;SDS011;378;48.844;9.156;2023-01-16T06:06:27;4.00;;;1.50;;
789;SDS011;378;48.844;9.156;2023-01-16T06:08:53;4.00;;;1.33;;
789;SDS011;378;48.844;9.156;2023-01-16T06:11:20;5.07;;;1.50;;
789;SDS011;378;48.844;9.156;2023-01-16T06:13:47;10.33;;;1.70;;
789;SDS011;378;48.844;9.156;2023-01-16T06:16:14;5.80;;;1.47;;
789;SDS011;378;48.844;9.156;2023-01-16T06:18:41;3.97;;;1.48;;
789;SDS011;378;48.844;9.156;2023-01-16T06:21:09;3.17;;;1.37;;
789;SDS011;378;48.844;9.156;2023-01-16T06:23:36;4.77;;;1.20;;
789;SDS011;378;48.844;9.156;2023-01-16T06:26:03;2.47;;;1.50;;
789;SDS011;378;48.844;9.156;2023-01-16T06:28:30;5.67;;;1.40;;
789;SDS011;378;48.844;9.156;2023-01-16T06:30:57;4.70;;;1.20;;
789;SDS011;378;48.844;9.156;2023-01-16T06:33:24;2.83;;;1.27;;
789;SDS011;378;48.844;9.156;2023-01-16T06:35:52;4.97;;;1.00;;
789;SDS011;378;48.844;9.156;2023-01-16T06:38:20;3.97;;;1.10;;
789;SDS011;378;48.844;9.156;2023-01-16T06:40:47;3.50;;;1.30;;
789;SDS011;378;48.844;9.156;2023-01-16T06:43:14;2.37;;;1.03;;
789;SDS011;378;48.844;9.156;2023-01-16T06:45:41;3.63;;;1.10;;
789;SDS011;378;48.844;9.156;2023-01-16T06:48:10;2.30;;;1.47;;
789;SDS011;378;48.844;9.156;2023-01-16T06:50:37;1.77;;;0.93;;
789;SDS011;378;48.844;9.156;2023-01-16T06:53:03;3.43;;;1.20;;
789;SDS011;378;48.844;9.156;2023-01-16T06:55:32;4.38;;;1.20;;
789;SDS011;378;48.844;9.156;2023-01-16T06:57:58;2.70;;;1.33;;
789;SDS011;378;48.844;9.156;2023-01-16T07:00:25;3.33;;;1.03;;
789;SDS011;378;48.844;9.156;2023-01-16T07:02:53;5.27;;;1.13;;
789;SDS011;378;48.844;9.156;2023-01-16T07:05:21;1.40;;;1.03;;
789;SDS011;378;48.844;9.156;2023-01-16T07:07:49;3.33;;;2.07;;
789;SDS011;378;48.844;9.156;2023-01-16T07:10:16;3.47;;;1.20;;
789;SDS011;378;48.844;9.156;2023-01-16T07:12:46;2.13;;;0.83;;
789;SDS011;378;48.844;9.156;2023-01-16T07:15:14;3.93;;;1.10;;
789;SDS011;378;48.844;9.156;2023-01-16T07:17:58;3.67;;;1.17;;
789;SDS011;378;48.844;9.156;2023-01-16T07:20:50;1.57;;;1.17;;
789;SDS011;378;48.844;9.156;2023-01-16T07:23:37;1.63;;;1.00;;
789;SDS011;378;48.844;9.156;2023-01-16T07:26:06;6.10;;;1.10;;
789;SDS011;378;48.844;9.156;2023-01-16T07:28:36;2.33;;;1.30;;
789;SDS011;378;48.844;9.156;2023-01-16T07:31:04;5.33;;;1.50;;
789;SDS011;378;48.844;9.156;2023-01-16T07:33:32;3.53;;;1.30;;
789;SDS011;378;48.844;9.156;2023-01-16T07:35:59;2.13;;;1.20;;
789;SDS011;378;48.844;9.156;2023-01-16T07:38:26;3.27;;;1.43;;
789;SDS011;378;48.844;9.156;2023-01-16T07:40:53;4.13;;;1.23;;
789;SDS011;378;48.844;9.156;2023-01-16T07:43:20;3.10;;;1.10;;
789;SDS011;378;48.844;9.156;2023-01-16T07:45:48;1.47;;;1.13;;
789;SDS011;378;48.844;9.156;2023-01-16T07:48:17;3.37;;;1.20;;
789;SDS011;378;48.844;9.156;2023-01-16T07:50:48;2.20;;;1.20;;
789;SDS011;378;48.844;9.156;2023-01-16T07:53:16;4.97;;;1.40;;
789;SDS011;378;48.844;9.156;2023-01-16T07:55:46;5.13;;;1.37;;
789;SDS011;378;48.844;9.156;2023-01-16T07:58:13;2.05;;;1.35;;
789;SDS011;378;48.844;9.156;2023-01-16T08:00:40;5.23;;;1.60;;
789;SDS011;378;48.844;9.156;2023-01-16T08:03:08;3.85;;;1.65;;
789;SDS011;378;48.844;9.156;2023-01-16T08:05:35;5.38;;;1.38;;
789;SDS011;378;48.844;9.156;2023-01-16T08:08:02;3.95;;;1.70;;
789;SDS011;378;48.844;9.156;2023-01-16T08:10:29;3.63;;;1.40;;
789;SDS011;378;48.844;9.156;2023-01-16T08:12:56;3.28;;;1.52;;
789;SDS011;378;48.844;9.156;2023-01-16T08:15:23;5.68;;;1.70;;
789;SDS011;378;48.844;9.156;2023-01-16T08:17:50;2.97;;;1.70;;
789;SDS011;378;48.844;9.156;2023-01-16T08:20:18;4.50;;;1.38;;
789;SDS011;378;48.844;9.156;2023-01-16T08:22:45;3.70;;;1.30;;
789;SDS011;378;48.844;9.156;2023-01-16T08:25:15;4.18;;;1.60;;
789;SDS011;378;48.844;9.156;2023-01-16T08:27:43;4.10;;;1.30;;
789;SDS011;378;48.844;9.156;2023-01-16T08:30:10;3.58;;;1.60;;
789;SDS011;378;48.844;9.156;2023-01-16T08:32:38;4.60;;;1.65;;
789;SDS011;378;48.844;9.156;2023-01-16T08:35:05;6.72;;;1.50;;
789;SDS011;378;48.844;9.156;2023-01-16T08:37:35;2.28;;;1.38;;
789;SDS011;378;48.844;9.156;2023-01-16T08:40:02;1.92;;;1.27;;
789;SDS011;378;48.844;9.156;2023-01-16T08:42:30;2.03;;;1.25;;
789;SDS011;378;48.844;9.156;2023-01-16T08:45:20;4.55;;;1.20;;
789;SDS011;378;48.844;9.156;2023-01-16T08:48:04;1.63;;;1.17;;
789;SDS011;378;48.844;9.156;2023-01-16T08:50:52;1.65;;;0.88;;
789;SDS011;378;48.844;9.156;2023-01-16T08:53:38;2.05;;;1.13;;
789;SDS011;378;48.844;9.156;2023-01-16T08:56:05;1.55;;;1.00;;
789;SDS011;378;48.844;9.156;2023-01-16T08:58:33;2.42;;;0.98;;
789;SDS011;378;48.844;9.156;2023-01-16T09:00:59;3.42;;;1.13;;
789;SDS011;378;48.844;9.156;2023-01-16T09:03:26;1.05;;;0.88;;
789;SDS011;378;48.844;9.156;2023-01-16T09:05:53;0.82;;;0.82;;
789;SDS011;378;48.844;9.156;2023-01-16T09:08:20;3.50;;;0.98;;
789;SDS011;378;48.844;9.156;2023-01-16T09:10:48;3.60;;;1.00;;
789;SDS011;378;48.844;9.156;2023-01-16T09:13:29;2.72;;;1.13;;
789;SDS011;378;48.844;9.156;2023-01-16T09:16:14;2.85;;;1.30;;
789;SDS011;378;48.844;9.156;2023-01-16T09:18:41;1.42;;;1.20;;
789;SDS011;378;48.844;9.156;2023-01-16T09:21:08;2.90;;;1.10;;
789;SDS011;378;48.844;9.156;2023-01-16T09:23:35;3.90;;;0.95;;
789;SDS011;378;48.844;9.156;2023-01-16T09:26:03;1.98;;;0.93;;
789;SDS011;378;48.844;9.156;2023-01-16T09:28:30;2.35;;;1.02;;
789;SDS011;378;48.844;9.156;2023-01-16T09:30:57;1.05;;;0.73;;
789;SDS011;378;48.844;9.156;2023-01-16T09:33:24;3.35;;;1.00;;
789;SDS011;378;48.844;9.156;2023-01-16T09:35:51;0.98;;;0.68;;
789;SDS011;378;48.844;9.156;2023-01-16T09:38:18;2.58;;;0.90;;
789;SDS011;378;48.844;9.156;2023-01-16T09:40:45;4.47;;;0.80;;
789;SDS011;378;48.844;9.156;2023-01-16T09:43:21;1.85;;;0.80;;
789;SDS011;378;48.844;9.156;2023-01-16T09:46:01;1.98;;;0.88;;
789;SDS011;378;48.844;9.156;2023-01-16T09:48:32;4.78;;;0.90;;
789;SDS011;378;48.844;9.156;2023-01-16T09:51:03;2.30;;;0.93;;
789;SDS011;378;48.844;9.156;2023-01-16T09:53:40;2.80;;;0.85;;
789;SDS011;378;48.844;9.156;2023-01-16T09:56:30;2.60;;;0.80;;
789;SDS011;378;48.844;9.156;2023-01-16T09:59:26;4.95;;;0.77;;
789;SDS011;378;48.844;9.156;2023-01-16T10:01:59;3.67;;;0.77;;
789;SDS011;378;48.844;9.156;2023-01-16T10:04:33;1.38;;;0.90;;
789;SDS011;378;48.844;9.156;2023-01-16T10:07:06;2.17;;;0.90;;
789;SDS011;378;48.844;9.156;2023-01-16T10:09:48;1.80;;;0.80;;
789;SDS011;378;48.844;9.156;2023-01-16T10:12:25;1.48;;;0.90;;
789;SDS011;378;48.844;9.156;2023-01-16T10:15:02;1.15;;;0.80;;
789;SDS011;378;48.844;9.156;2023-01-16T10:17:39;6.07;;;1.00;;
789;SDS011;378;48.844;9.156;2023-01-16T10:20:20;1.05;;;0.55;;
789;SDS011;378;48.844;9.156;2023-01-16T10:22:58;1.38;;;0.85;;
789;SDS011;378;48.844;9.156;2023-01-16T10:25:35;1.63;;;0.85;;
789;SDS011;378;48.844;9.156;2023-01-16T10:28:12;2.92;;;1.30;;
789;SDS011;378;48.844;9.156;2023-01-16T10:30:52;0.80;;;0.70;;
789;SDS011;378;48.844;9.156;2023-01-16T10:33:24;1.13;;;0.60;;
789;SDS011;378;48.844;9.156;2023-01-16T10:35:55;0.55;;;0.55;;
789;SDS011;378;48.844;9.156;2023-01-16T10:38:26;3.72;;;0.70;;
789;SDS011;378;48.844;9.156;2023-01-16T10:41:03;3.00;;;0.80;;
789;SDS011;378;48.844;9.156;2023-01-16T10:43:51;3.90;;;0.98;;
789;SDS011;378;48.844;9.156;2023-01-16T10:46:38;2.15;;;0.80;;
789;SDS011;378;48.844;9.156;2023-01-16T10:49:24;3.20;;;0.80;;
789;SDS011;378;48.844;9.156;2023-01-16T10:51:52;2.78;;;0.70;;
789;SDS011;378;48.844;9.156;2023-01-16T10:54:19;3.03;;;0.60;;
789;SDS011;378;48.844;9.156;2023-01-16T10:56:45;0.52;;;0.52;;
789;SDS011;378;48.844;9.156;2023-01-16T10:59:12;0.80;;;0.50;;
789;SDS011;378;48.844;9.156;2023-01-16T11:01:42;2.78;;;0.60;;
789;SDS011;378;48.844;9.156;2023-01-16T11:04:10;2.00;;;0.60;;
789;SDS011;378;48.844;9.156;2023-01-16T11:06:38;4.45;;;0.95;;
789;SDS011;378;48.844;9.156;2023-01-16T11:09:14;1.65;;;0.60;;
789;SDS011;378;48.844;9.156;2023-01-16T11:11:43;1.20;;;0.80;;
789;SDS011;378;48.844;9.156;2023-01-16T11:14:29;1.10;;;0.80;;
789;SDS011;378;48.844;9.156;2023-01-16T11:17:24;1.17;;;0.82;;
789;SDS011;378;48.844;9.156;2023-01-16T11:20:12;1.05;;;0.80;;
789;SDS011;378;48.844;9.156;2023-01-16T11:22:42;3.63;;;0.75;;
789;SDS011;378;48.844;9.156;2023-01-16T11:25:14;3.00;;;0.70;;
789;SDS011;378;48.844;9.156;2023-01-16T11:27:45;0.85;;;0.60;;
789;SDS011;378;48.844;9.156;2023-01-16T11:30:16;0.60;;;0.60;;
789;SDS011;378;48.844;9.156;2023-01-16T11:32:47;1.35;;;0.70;;
789;SDS011;378;48.844;9.156;2023-01-16T11:35:16;0.50;;;0.50;;
789;SDS011;378;48.844;9.156;2023-01-16T11:37:44;0.70;;;0.63;;
789;SDS011;378;48.844;9.156;2023-01-16T11:40:16;2.25;;;0.85;;
789;SDS011;378;48.844;9.156;2023-01-16T11:42:52;1.45;;;0.60;;
789;SDS011;378;48.844;9.156;2023-01-16T11:45:42;0.50;;;0.50;;
789;SDS011;378;48.844;9.156;2023-01-16T11:48:32;2.53;;;0.80;;
789;SDS011;378;48.844;9.156;2023-01-16T11:51:02;1.15;;;0.50;;
789;SDS011;378;48.844;9.156;2023-01-16T11:53:32;1.23;;;0.50;;
789;SDS011;378;48.844;9.156;2023-01-16T11:56:23;4.03;;;0.70;;
789;SDS011;378;48.844;9.156;2023-01-16T11:59:02;0.57;;;0.52;;
789;SDS011;378;48.844;9.156;2023-01-16T12:01:42;1.20;;;0.65;;
789;SDS011;378;48.844;9.156;2023-01-16T12:04:40;0.93;;;0.65;;
789;SDS011;378;48.844;9.156;2023-01-16T12:07:34;0.50;;;0.50;;
789;SDS011;378;48.844;9.156;2023-01-16T12:10:14;0.68;;;0.60;;
789;SDS011;378;48.844;9.156;2023-01-16T12:12:50;0.93;;;0.60;;
789;SDS011;378;48.844;9.156;2023-01-16T12:15:41;2.67;;;0.65;;
789;SDS011;378;48.844;9.156;2023-01-16T12:18:16;1.23;;;0.60;;
789;SDS011;378;48.844;9.156;2023-01-16T12:20:59;0.50;;;0.50;;
789;SDS011;378;48.844;9.156;2023-01-16T12:23:45;1.05;;;0.70;;
789;SDS011;378;48.844;9.156;2023-01-16T12:26:23;0.60;;;0.60;;
789;SDS011;378;48.844;9.156;2023-01-16T12:28:57;0.95;;;0.63;;
789;SDS011;378;48.844;9.156;2023-01-16T12:31:47;0.52;;;0.52;;
789;SDS011;378;48.844;9.156;2023-01-16T12:34:33;0.75;;;0.50;;
789;SDS011;378;48.844;9.156;2023-01-16T12:37:20;0.82;;;0.60;;
789;SDS011;378;48.844;9.156;2023-01-16T12:39:57;0.98;;;0.65;;
789;SDS011;378;48.844;9.156;2023-01-16T12:42:35;0.50;;;0.50;;
789;SDS011;378;48.844;9.156;2023-01-16T12:45:32;0.82;;;0.50;;
789;SDS011;378;48.844;9.156;2023-01-16T12:48:12;0.50;;;0.50;;
789;SDS011;378;48.844;9.156;2023-01-16T12:50:56;0.65;;;0.50;;
789;SDS011;378;48.844;9.156;2023-01-16T12:53:54;1.38;;;0.65;;
789;SDS011;378;48.844;9.156;2023-01-16T12:56:46;0.55;;;0.55;;
789;SDS011;378;48.844;9.156;2023-01-16T12:59:27;0.55;;;0.52;;
789;SDS011;378;48.844;9.156;2023-01-16T13:02:02;0.70;;;0.45;;
789;SDS011;378;48.844;9.156;2023-01-16T13:04:41;1.88;;;0.75;;
789;SDS011;378;48.844;9.156;2023-01-16T13:07:13;0.63;;;0.60;;
789;SDS011;378;48.844;9.156;2023-01-16T13:09:44;1.42;;;0.80;;
789;SDS011;378;48.844;9.156;2023-01-16T13:12:17;0.57;;;0.57;;
789;SDS011;378;48.844;9.156;2023-01-16T13:15:05;1.70;;;0.57;;
789;SDS011;378;48.844;9.156;2023-01-16T13:17:39;0.60;;;0.60;;
789;SDS011;378;48.844;9.156;2023-01-16T13:20:10;0.50;;;0.50;;
789;SDS011;378;48.844;9.156;2023-01-16T13:22:42;0.60;;;0.50;;
789;SDS011;378;48.844;9.156;2023-01-16T13:25:17;0.43;;;0.40;;
789;SDS011;378;48.844;9.156;2023-01-16T13:27:48;0.60;;;0.57;;
789;SDS011;378;48.844;9.156;2023-01-16T13:30:20;0.30;;;0.30;;
789;SDS011;378;48.844;9.156;2023-01-16T13:32:49;0.68;;;0.50;;
789;SDS011;378;48.844;9.156;2023-01-16T13:35:21;0.43;;;0.40;;
789;SDS011;378;48.844;9.156;2023-01-16T13:37:58;0.40;;;0.40;;
789;SDS011;378;48.844;9.156;2023-01-16T13:41:12;0.93;;;0.60;;
789;SDS011;378;48.844;9.156;2023-01-16T13:43:43;0.50;;;0.50;;
789;SDS011;378;48.844;9.156;2023-01-16T13:46:33;0.40;;;0.40;;
789;SDS011;378;48.844;9.156;2023-01-16T13:49:01;0.57;;;0.57;;
789;SDS011;378;48.844;9.156;2023-01-16T13:51:30;0.40;;;0.40;;
789;SDS011;378;48.844;9.156;2023-01-16T13:54:07;0.50;;;0.50;;
789;SDS011;378;48.844;9.156;2023-01-16T13:56:42;0.40;;;0.40;;
789;SDS011;378;48.844;9.156;2023-01-16T13:59:14;0.50;;;0.50;;
789;SDS011;378;48.844;9.156;2023-01-16T14:01:54;0.40;;;0.40;;
789;SDS011;378;48.844;9.156;2023-01-16T14:04:27;1.02;;;0.50;;
789;SDS011;378;48.844;9.156;2023-01-16T14:06:57;0.40;;;0.40;;
789;SDS011;378;48.844;9.156;2023-01-16T14:09:58;1.10;;;0.60;;
789;SDS011;378;48.844;9.156;2023-01-16T14:12:43;0.50;;;0.50;;
789;SDS011;378;48.844;9.156;2023-01-16T14:15:26;3.30;;;0.80;;
789;SDS011;378;48.844;9.156;2023-01-16T14:18:35;0.40;;;0.40;;
789;SDS011;378;48.844;9.156;2023-01-16T14:21:04;0.77;;;0.60;;
789;SDS011;378;48.844;9.156;2023-01-16T14:23:39;0.40;;;0.40;;
789;SDS011;378;48.844;9.156;2023-01-16T14:26:35;1.95;;;0.50;;
789;SDS011;378;48.844;9.156;2023-01-16T14:29:12;0.90;;;0.65;;
789;SDS011;378;48.844;9.156;2023-01-16T14:31:44;0.40;;;0.40;;
789;SDS011;378;48.844;9.156;2023-01-16T14:34:17;0.35;;;0.30;;
789;SDS011;378;48.844;9.156;2023-01-16T14:36:49;0.50;;;0.50;;
789;SDS011;378;48.844;9.156;2023-01-16T14:39:25;0.73;;;0.40;;
789;SDS011;378;48.844;9.156;2023-01-16T14:41:54;1.80;;;0.57;;
789;SDS011;378;48.844;9.156;2023-01-16T14:48:08;0.77;;;0.60;;
789;SDS011;378;48.844;9.156;2023-01-16T14:50:58;0.85;;;0.50;;
789;SDS011;378;48.844;9.156;2023-01-16T14:53:44;0.85;;;0.35;;
789;SDS011;378;48.844;9.156;2023-01-16T14:56:32;0.50;;;0.50;;
789;SDS011;378;48.844;9.156;2023-01-16T14:59:03;0.50;;;0.50;;
789;SDS011;378;48.844;9.156;2023-01-16T15:01:34;0.85;;;0.60;;
789;SDS011;378;48.844;9.156;2023-01-16T15:04:23;0.68;;;0.65;;
789;SDS011;378;48.844;9.156;2023-01-16T15:06:58;0.90;;;0.55;;
789;SDS011;378;48.844;9.156;2023-01-16T15:09:28;0.50;;;0.50;;
789;SDS011;378;48.844;9.156;2023-01-16T15:11:57;0.45;;;0.45;;
789;SDS011;378;48.844;9.156;2023-01-16T15:14:25;0.60;;;0.55;;
789;SDS011;378;48.844;9.156;2023-01-16T15:16:54;0.50;;;0.50;;
789;SDS011;378;48.844;9.156;2023-01-16T15:19:54;2.05;;;0.70;;
789;SDS011;378;48.844;9.156;2023-01-16T15:22:41;0.52;;;0.52;;
789;SDS011;378;48.844;9.156;2023-01-16T15:25:12;0.82;;;0.50;;
789;SDS011;378;48.844;9.156;2023-01-16T15:27:51;0.43;;;0.40;;
789;SDS011;378;48.844;9.156;2023-01-16T15:30:24;0.73;;;0.60;;
789;SDS011;378;48.844;9.156;2023-01-16T15:32:53;0.73;;;0.50;;
789;SDS011;378;48.844;9.156;2023-01-16T15:35:41;1.40;;;0.70;;
789;SDS011;378;48.844;9.156;2023-01-16T15:38:08;0.70;;;0.55;;
789;SDS011;378;48.844;9.156;2023-01-16T15:40:36;0.73;;;0.50;;
789;SDS011;378;48.844;9.156;2023-01-16T15:43:03;0.50;;;0.50;;
789;SDS011;378;48.844;9.156;2023-01-16T15:45:50;0.50;;;0.50;;
789;SDS011;378;48.844;9.156;2023-01-16T15:48:44;1.58;;;0.70;;
789;SDS011;378;48.844;9.156;2023-01-16T15:51:19;0.50;;;0.50;;
789;SDS011;378;48.844;9.156;2023-01-16T15:53:48;2.20;;;0.40;;
789;SDS011;378;48.844;9.156;2023-01-16T15:56:20;0.47;;;0.47;;
789;SDS011;378;48.844;9.156;2023-01-16T15:58:50;0.40;;;0.40;;
789;SDS011;378;48.844;9.156;2023-01-16T16:01:23;1.30;;;0.50;;
789;SDS011;378;48.844;9.156;2023-01-16T16:03:53;0.47;;;0.47;;
789;SDS011;378;48.844;9.156;2023-01-16T16:06:21;0.40;;;0.40;;
789;SDS011;378;48.844;9.156;2023-01-16T16:08:50;0.40;;;0.40;;
789;SDS011;378;48.844;9.156;2023-01-16T16:11:19;0.38;;;0.38;;
789;SDS011;378;48.844;9.156;2023-01-16T16:14:05;0.50;;;0.50;;
789;SDS011;378;48.844;9.156;2023-01-16T16:16:59;0.52;;;0.50;;
789;SDS011;378;48.844;9.156;2023-01-16T16:19:45;0.50;;;0.50;;
789;SDS011;378;48.844;9.156;2023-01-16T16:22:13;0.80;;;0.60;;
789;SDS011;378;48.844;9.156;2023-01-16T16:25:07;1.02;;;0.68;;
789;SDS011;378;48.844;9.156;2023-01-16T16:27:35;2.40;;;0.77;;
789;SDS011;378;48.844;9.156;2023-01-16T16:30:01;0.98;;;0.65;;
789;SDS011;378;48.844;9.156;2023-01-16T16:32:30;2.35;;;0.70;;
789;SDS011;378;48.844;9.156;2023-01-16T16:35:04;0.60;;;0.60;;
789;SDS011;378;48.844;9.156;2023-01-16T16:37:32;2.72;;;0.70;;